sensor_id;sensor_type;location;lat;lon;timestamp;P1;durP1;ratioP1;P2;durP2;ratioP2
9661;SDS011;24982;52.344;12.990;2022-10-16T00:02:51;1.90;;;1.80;;
9661;SDS011;24982;52.344;12.990;2022-10-16T00:05:53;1.70;;;1.70;;
9661;SDS011;24982;52.344;12.990;2022-10-16T00:09:01;1.80;;;1.80;;
9661;SDS011;24982;52.344;12.990;2022-10-16T00:12:04;2.03;;;1.80;;
9661;SDS011;24982;52.344;12.990;2022-10-16T00:15:07;1.90;;;1.80;;
9661;SDS011;24982;52.344;12.990;2022-10-16T00:18:09;1.80;;;1.70;;
9661;SDS011;24982;52.344;12.990;2022-10-16T00:21:13;1.80;;;1.70;;
9661;SDS011;24982;52.344;12.990;2022-10-16T00:24:18;2.10;;;1.90;;
9661;SDS011;24982;52.344;12.990;2022-10-16T00:27:22;2.28;;;2.08;;
9661;SDS011;24982;52.344;12.990;2022-10-16T00:30:24;2.60;;;2.50;;
9661;SDS011;24982;52.344;12.990;2022-10-16T00:33:27;2.42;;;2.28;;
9661;SDS011;24982;52.344;12.990;2022-10-16T00:36:29;2.20;;;2.00;;
9661;SDS011;24982;52.344;12.990;2022-10-16T00:39:32;2.10;;;1.88;;
9661;SDS011;24982;52.344;12.990;2022-10-16T00:42:35;2.10;;;1.80;;
9661;SDS011;24982;52.344;12.990;2022-10-16T00:45:37;1.88;;;1.77;;
9661;SDS011;24982;52.344;12.990;2022-10-16T00:48:39;1.85;;;1.75;;
9661;SDS011;24982;52.344;12.990;2022-10-16T00:51:42;2.38;;;2.13;;
9661;SDS011;24982;52.344;12.990;2022-10-16T00:54:46;1.70;;;1.60;;
9661;SDS011;24982;52.344;12.990;2022-10-16T00:57:52;1.88;;;1.80;;
9661;SDS011;24982;52.344;12.990;2022-10-16T01:00:54;2.67;;;1.85;;
9661;SDS011;24982;52.344;12.990;2022-10-16T01:03:56;1.80;;;1.80;;
9661;SDS011;24982;52.344;12.990;2022-10-16T01:06:59;1.67;;;1.67;;
9661;SDS011;24982;52.344;12.990;2022-10-16T01:10:10;1.83;;;1.73;;
9661;SDS011;24982;52.344;12.990;2022-10-16T01:13:22;1.65;;;1.65;;
9661;SDS011;24982;52.344;12.990;2022-10-16T01:16:30;1.77;;;1.70;;
9661;SDS011;24982;52.344;12.990;2022-10-16T01:19:44;1.65;;;1.55;;
9661;SDS011;24982;52.344;12.990;2022-10-16T01:23:04;1.92;;;1.73;;
9661;SDS011;24982;52.344;12.990;2022-10-16T01:26:14;3.67;;;1.67;;
9661;SDS011;24982;52.344;12.990;2022-10-16T01:29:34;1.88;;;1.80;;
9661;SDS011;24982;52.344;12.990;2022-10-16T01:32:41;1.70;;;1.60;;
9661;SDS011;24982;52.344;12.990;2022-10-16T01:35:48;3.55;;;1.70;;
9661;SDS011;24982;52.344;12.990;2022-10-16T01:38:54;2.03;;;1.60;;
9661;SDS011;24982;52.344;12.990;2022-10-16T01:42:03;3.70;;;1.90;;
9661;SDS011;24982;52.344;12.990;2022-10-16T01:45:09;1.73;;;1.63;;
9661;SDS011;24982;52.344;12.990;2022-10-16T01:48:16;1.75;;;1.65;;
9661;SDS011;24982;52.344;12.990;2022-10-16T01:51:19;1.95;;;1.85;;
9661;SDS011;24982;52.344;12.990;2022-10-16T01:54:24;1.67;;;1.60;;
9661;SDS011;24982;52.344;12.990;2022-10-16T01:57:29;1.60;;;1.60;;
9661;SDS011;24982;52.344;12.990;2022-10-16T02:00:34;1.80;;;1.70;;
9661;SDS011;24982;52.344;12.990;2022-10-16T02:03:40;1.75;;;1.65;;
9661;SDS011;24982;52.344;12.990;2022-10-16T02:06:43;1.92;;;1.83;;
9661;SDS011;24982;52.344;12.990;2022-10-16T02:09:46;1.92;;;1.73;;
9661;SDS011;24982;52.344;12.990;2022-10-16T02:12:49;1.50;;;1.45;;
9661;SDS011;24982;52.344;12.990;2022-10-16T02:15:58;1.55;;;1.55;;
9661;SDS011;24982;52.344;12.990;2022-10-16T02:19:00;1.95;;;1.75;;
9661;SDS011;24982;52.344;12.990;2022-10-16T02:22:04;1.50;;;1.50;;
9661;SDS011;24982;52.344;12.990;2022-10-16T02:25:09;1.88;;;1.77;;
9661;SDS011;24982;52.344;12.990;2022-10-16T02:28:15;1.83;;;1.67;;
9661;SDS011;24982;52.344;12.990;2022-10-16T02:31:22;1.45;;;1.45;;
9661;SDS011;24982;52.344;12.990;2022-10-16T02:34:29;1.60;;;1.60;;
9661;SDS011;24982;52.344;12.990;2022-10-16T02:37:33;1.42;;;1.42;;
9661;SDS011;24982;52.344;12.990;2022-10-16T02:40:35;1.75;;;1.45;;
9661;SDS011;24982;52.344;12.990;2022-10-16T02:43:38;1.75;;;1.70;;
9661;SDS011;24982;52.344;12.990;2022-10-16T02:46:41;1.60;;;1.50;;
9661;SDS011;24982;52.344;12.990;2022-10-16T02:49:43;3.17;;;1.83;;
9661;SDS011;24982;52.344;12.990;2022-10-16T02:52:45;1.65;;;1.55;;
9661;SDS011;24982;52.344;12.990;2022-10-16T02:55:47;1.70;;;1.60;;
9661;SDS011;24982;52.344;12.990;2022-10-16T02:58:49;1.50;;;1.50;;
9661;SDS011;24982;52.344;12.990;2022-10-16T03:01:53;1.60;;;1.50;;
9661;SDS011;24982;52.344;12.990;2022-10-16T03:04:54;1.33;;;1.33;;
9661;SDS011;24982;52.344;12.990;2022-10-16T03:07:56;1.63;;;1.40;;
9661;SDS011;24982;52.344;12.990;2022-10-16T03:11:00;1.67;;;1.58;;
9661;SDS011;24982;52.344;12.990;2022-10-16T03:14:02;1.30;;;1.30;;
9661;SDS011;24982;52.344;12.990;2022-10-16T03:17:06;1.58;;;1.58;;
9661;SDS011;24982;52.344;12.990;2022-10-16T03:20:08;1.55;;;1.55;;
9661;SDS011;24982;52.344;12.990;2022-10-16T03:23:11;1.50;;;1.50;;
9661;SDS011;24982;52.344;12.990;2022-10-16T03:26:13;1.42;;;1.33;;
9661;SDS011;24982;52.344;12.990;2022-10-16T03:29:15;1.58;;;1.50;;
9661;SDS011;24982;52.344;12.990;2022-10-16T03:32:19;1.60;;;1.60;;
9661;SDS011;24982;52.344;12.990;2022-10-16T03:35:21;1.50;;;1.40;;
9661;SDS011;24982;52.344;12.990;2022-10-16T03:38:24;1.52;;;1.52;;
9661;SDS011;24982;52.344;12.990;2022-10-16T03:41:26;1.40;;;1.40;;
9661;SDS011;24982;52.344;12.990;2022-10-16T03:44:28;1.75;;;1.65;;
9661;SDS011;24982;52.344;12.990;2022-10-16T03:47:31;1.60;;;1.50;;
9661;SDS011;24982;52.344;12.990;2022-10-16T03:50:33;1.77;;;1.58;;
9661;SDS011;24982;52.344;12.990;2022-10-16T03:53:35;1.48;;;1.48;;
9661;SDS011;24982;52.344;12.990;2022-10-16T03:56:37;1.65;;;1.50;;
9661;SDS011;24982;52.344;12.990;2022-10-16T03:59:39;1.73;;;1.63;;
9661;SDS011;24982;52.344;12.990;2022-10-16T04:02:43;1.63;;;1.63;;
9661;SDS011;24982;52.344;12.990;2022-10-16T04:05:45;1.58;;;1.58;;
9661;SDS011;24982;52.344;12.990;2022-10-16T04:08:47;2.97;;;1.60;;
9661;SDS011;24982;52.344;12.990;2022-10-16T04:11:50;3.15;;;1.70;;
9661;SDS011;24982;52.344;12.990;2022-10-16T04:14:52;1.70;;;1.60;;
9661;SDS011;24982;52.344;12.990;2022-10-16T04:17:55;1.70;;;1.60;;
9661;SDS011;24982;52.344;12.990;2022-10-16T04:21:01;1.50;;;1.50;;
9661;SDS011;24982;52.344;12.990;2022-10-16T04:24:04;1.55;;;1.50;;
9661;SDS011;24982;52.344;12.990;2022-10-16T04:27:06;1.67;;;1.58;;
9661;SDS011;24982;52.344;12.990;2022-10-16T04:30:08;1.50;;;1.50;;
9661;SDS011;24982;52.344;12.990;2022-10-16T04:33:12;2.15;;;1.60;;
9661;SDS011;24982;52.344;12.990;2022-10-16T04:36:14;2.33;;;1.50;;
9661;SDS011;24982;52.344;12.990;2022-10-16T04:39:16;1.63;;;1.52;;
9661;SDS011;24982;52.344;12.990;2022-10-16T04:42:18;4.00;;;1.60;;
9661;SDS011;24982;52.344;12.990;2022-10-16T04:45:20;1.77;;;1.67;;
9661;SDS011;24982;52.344;12.990;2022-10-16T04:48:23;4.20;;;1.52;;
9661;SDS011;24982;52.344;12.990;2022-10-16T04:51:25;1.70;;;1.58;;
9661;SDS011;24982;52.344;12.990;2022-10-16T04:54:28;1.95;;;1.50;;
9661;SDS011;24982;52.344;12.990;2022-10-16T04:57:31;1.50;;;1.50;;
9661;SDS011;24982;52.344;12.990;2022-10-16T05:00:34;1.98;;;1.88;;
9661;SDS011;24982;52.344;12.990;2022-10-16T05:03:37;1.98;;;1.88;;
9661;SDS011;24982;52.344;12.990;2022-10-16T05:06:39;1.50;;;1.50;;
9661;SDS011;24982;52.344;12.990;2022-10-16T05:09:42;2.03;;;1.90;;
9661;SDS011;24982;52.344;12.990;2022-10-16T05:12:43;1.98;;;1.88;;
9661;SDS011;24982;52.344;12.990;2022-10-16T05:15:46;1.73;;;1.73;;
9661;SDS011;24982;52.344;12.990;2022-10-16T05:18:52;1.67;;;1.58;;
9661;SDS011;24982;52.344;12.990;2022-10-16T05:21:54;1.55;;;1.52;;
9661;SDS011;24982;52.344;12.990;2022-10-16T05:24:56;1.45;;;1.45;;
9661;SDS011;24982;52.344;12.990;2022-10-16T05:27:58;1.40;;;1.40;;
9661;SDS011;24982;52.344;12.990;2022-10-16T05:31:03;1.55;;;1.55;;
9661;SDS011;24982;52.344;12.990;2022-10-16T05:34:08;1.73;;;1.50;;
9661;SDS011;24982;52.344;12.990;2022-10-16T05:37:10;1.60;;;1.60;;
9661;SDS011;24982;52.344;12.990;2022-10-16T05:40:12;2.83;;;1.80;;
9661;SDS011;24982;52.344;12.990;2022-10-16T05:43:15;1.77;;;1.67;;
9661;SDS011;24982;52.344;12.990;2022-10-16T05:46:17;1.75;;;1.70;;
9661;SDS011;24982;52.344;12.990;2022-10-16T05:49:20;1.75;;;1.65;;
9661;SDS011;24982;52.344;12.990;2022-10-16T05:52:22;2.30;;;1.98;;
9661;SDS011;24982;52.344;12.990;2022-10-16T05:55:24;3.67;;;1.70;;
9661;SDS011;24982;52.344;12.990;2022-10-16T05:58:28;6.82;;;2.20;;
9661;SDS011;24982;52.344;12.990;2022-10-16T06:01:31;2.13;;;2.03;;
9661;SDS011;24982;52.344;12.990;2022-10-16T06:04:34;1.75;;;1.75;;
9661;SDS011;24982;52.344;12.990;2022-10-16T06:07:36;3.22;;;2.15;;
9661;SDS011;24982;52.344;12.990;2022-10-16T06:10:38;2.00;;;1.90;;
9661;SDS011;24982;52.344;12.990;2022-10-16T06:13:40;3.22;;;2.00;;
9661;SDS011;24982;52.344;12.990;2022-10-16T06:16:43;2.05;;;1.95;;
9661;SDS011;24982;52.344;12.990;2022-10-16T06:19:46;1.80;;;1.70;;
9661;SDS011;24982;52.344;12.990;2022-10-16T06:22:48;2.55;;;1.90;;
9661;SDS011;24982;52.344;12.990;2022-10-16T06:25:50;1.65;;;1.63;;
9661;SDS011;24982;52.344;12.990;2022-10-16T06:28:53;1.88;;;1.77;;
9661;SDS011;24982;52.344;12.990;2022-10-16T06:31:56;4.20;;;1.80;;
9661;SDS011;24982;52.344;12.990;2022-10-16T06:35:00;1.88;;;1.77;;
9661;SDS011;24982;52.344;12.990;2022-10-16T06:38:02;1.80;;;1.70;;
9661;SDS011;24982;52.344;12.990;2022-10-16T06:41:04;5.60;;;1.60;;
9661;SDS011;24982;52.344;12.990;2022-10-16T06:44:07;4.18;;;1.80;;
9661;SDS011;24982;52.344;12.990;2022-10-16T06:47:10;3.78;;;1.70;;
9661;SDS011;24982;52.344;12.990;2022-10-16T06:50:13;3.28;;;1.52;;
9661;SDS011;24982;52.344;12.990;2022-10-16T06:53:15;1.77;;;1.67;;
9661;SDS011;24982;52.344;12.990;2022-10-16T06:56:18;1.58;;;1.48;;
9661;SDS011;24982;52.344;12.990;2022-10-16T06:59:21;2.25;;;2.10;;
9661;SDS011;24982;52.344;12.990;2022-10-16T07:02:24;1.88;;;1.70;;
9661;SDS011;24982;52.344;12.990;2022-10-16T07:05:27;1.65;;;1.65;;
9661;SDS011;24982;52.344;12.990;2022-10-16T07:08:30;3.25;;;1.55;;
9661;SDS011;24982;52.344;12.990;2022-10-16T07:11:33;1.60;;;1.40;;
9661;SDS011;24982;52.344;12.990;2022-10-16T07:14:36;1.95;;;1.50;;
9661;SDS011;24982;52.344;12.990;2022-10-16T07:17:38;1.58;;;1.48;;
9661;SDS011;24982;52.344;12.990;2022-10-16T07:20:41;1.50;;;1.50;;
9661;SDS011;24982;52.344;12.990;2022-10-16T07:23:43;1.60;;;1.50;;
9661;SDS011;24982;52.344;12.990;2022-10-16T07:26:45;1.70;;;1.60;;
9661;SDS011;24982;52.344;12.990;2022-10-16T07:29:47;1.58;;;1.23;;
9661;SDS011;24982;52.344;12.990;2022-10-16T07:32:49;1.30;;;1.20;;
9661;SDS011;24982;52.344;12.990;2022-10-16T07:35:53;3.00;;;1.27;;
9661;SDS011;24982;52.344;12.990;2022-10-16T07:38:55;1.27;;;1.27;;
9661;SDS011;24982;52.344;12.990;2022-10-16T07:41:57;1.38;;;1.38;;
9661;SDS011;24982;52.344;12.990;2022-10-16T07:44:59;1.58;;;1.40;;
9661;SDS011;24982;52.344;12.990;2022-10-16T07:48:01;1.50;;;1.40;;
9661;SDS011;24982;52.344;12.990;2022-10-16T07:51:05;1.40;;;1.40;;
9661;SDS011;24982;52.344;12.990;2022-10-16T07:54:08;1.98;;;1.52;;
9661;SDS011;24982;52.344;12.990;2022-10-16T07:57:10;5.72;;;1.70;;
9661;SDS011;24982;52.344;12.990;2022-10-16T08:00:18;1.50;;;1.20;;
9661;SDS011;24982;52.344;12.990;2022-10-16T08:03:20;2.03;;;1.30;;
9661;SDS011;24982;52.344;12.990;2022-10-16T08:06:24;1.30;;;1.30;;
9661;SDS011;24982;52.344;12.990;2022-10-16T08:09:26;1.55;;;1.05;;
9661;SDS011;24982;52.344;12.990;2022-10-16T08:12:28;1.45;;;1.20;;
9661;SDS011;24982;52.344;12.990;2022-10-16T08:15:30;1.27;;;1.25;;
9661;SDS011;24982;52.344;12.990;2022-10-16T08:18:32;2.10;;;1.60;;
9661;SDS011;24982;52.344;12.990;2022-10-16T08:21:35;1.80;;;1.40;;
9661;SDS011;24982;52.344;12.990;2022-10-16T08:24:37;3.05;;;1.63;;
9661;SDS011;24982;52.344;12.990;2022-10-16T08:27:39;2.85;;;1.40;;
9661;SDS011;24982;52.344;12.990;2022-10-16T08:30:41;3.10;;;1.60;;
9661;SDS011;24982;52.344;12.990;2022-10-16T08:33:44;2.72;;;1.90;;
9661;SDS011;24982;52.344;12.990;2022-10-16T08:36:48;1.27;;;1.27;;
9661;SDS011;24982;52.344;12.990;2022-10-16T08:39:50;2.05;;;1.25;;
9661;SDS011;24982;52.344;12.990;2022-10-16T08:42:59;4.47;;;1.80;;
9661;SDS011;24982;52.344;12.990;2022-10-16T08:46:26;3.22;;;1.50;;
9661;SDS011;24982;52.344;12.990;2022-10-16T08:49:40;1.30;;;1.30;;
9661;SDS011;24982;52.344;12.990;2022-10-16T08:52:48;2.90;;;1.65;;
9661;SDS011;24982;52.344;12.990;2022-10-16T08:55:51;2.65;;;1.52;;
9661;SDS011;24982;52.344;12.990;2022-10-16T08:58:54;5.10;;;2.22;;
9661;SDS011;24982;52.344;12.990;2022-10-16T09:01:58;1.77;;;1.15;;
9661;SDS011;24982;52.344;12.990;2022-10-16T09:05:11;1.77;;;1.00;;
9661;SDS011;24982;52.344;12.990;2022-10-16T09:08:27;1.23;;;1.17;;
9661;SDS011;24982;52.344;12.990;2022-10-16T09:11:37;1.20;;;1.10;;
9661;SDS011;24982;52.344;12.990;2022-10-16T09:14:47;2.60;;;1.23;;
9661;SDS011;24982;52.344;12.990;2022-10-16T09:18:00;1.23;;;1.23;;
9661;SDS011;24982;52.344;12.990;2022-10-16T09:21:09;3.92;;;1.73;;
9661;SDS011;24982;52.344;12.990;2022-10-16T09:24:15;4.15;;;1.67;;
9661;SDS011;24982;52.344;12.990;2022-10-16T09:27:18;1.13;;;1.02;;
9661;SDS011;24982;52.344;12.990;2022-10-16T09:30:21;2.00;;;1.20;;
9661;SDS011;24982;52.344;12.990;2022-10-16T09:33:23;3.25;;;1.20;;
9661;SDS011;24982;52.344;12.990;2022-10-16T09:36:29;2.92;;;1.23;;
9661;SDS011;24982;52.344;12.990;2022-10-16T09:39:45;1.42;;;1.00;;
9661;SDS011;24982;52.344;12.990;2022-10-16T09:42:48;1.65;;;1.02;;
9661;SDS011;24982;52.344;12.990;2022-10-16T09:45:54;6.30;;;1.38;;
9661;SDS011;24982;52.344;12.990;2022-10-16T09:48:57;3.40;;;1.20;;
9661;SDS011;24982;52.344;12.990;2022-10-16T09:52:04;2.65;;;1.20;;
9661;SDS011;24982;52.344;12.990;2022-10-16T09:55:14;1.27;;;1.00;;
9661;SDS011;24982;52.344;12.990;2022-10-16T09:58:17;1.33;;;1.10;;
9661;SDS011;24982;52.344;12.990;2022-10-16T10:01:22;1.30;;;1.10;;
9661;SDS011;24982;52.344;12.990;2022-10-16T10:04:36;1.27;;;0.98;;
9661;SDS011;24982;52.344;12.990;2022-10-16T10:07:42;0.98;;;0.98;;
9661;SDS011;24982;52.344;12.990;2022-10-16T10:10:47;4.30;;;1.13;;
9661;SDS011;24982;52.344;12.990;2022-10-16T10:13:50;1.55;;;1.10;;
9661;SDS011;24982;52.344;12.990;2022-10-16T10:16:52;1.15;;;0.90;;
9661;SDS011;24982;52.344;12.990;2022-10-16T10:20:14;1.15;;;1.00;;
9661;SDS011;24982;52.344;12.990;2022-10-16T10:23:24;3.80;;;1.10;;
9661;SDS011;24982;52.344;12.990;2022-10-16T10:26:31;1.10;;;1.05;;
9661;SDS011;24982;52.344;12.990;2022-10-16T10:29:41;1.90;;;1.08;;
9661;SDS011;24982;52.344;12.990;2022-10-16T10:32:55;1.30;;;0.90;;
9661;SDS011;24982;52.344;12.990;2022-10-16T10:36:16;0.75;;;0.75;;
9661;SDS011;24982;52.344;12.990;2022-10-16T10:39:27;1.00;;;1.00;;
9661;SDS011;24982;52.344;12.990;2022-10-16T10:42:36;2.72;;;0.95;;
9661;SDS011;24982;52.344;12.990;2022-10-16T10:45:46;1.00;;;1.00;;
9661;SDS011;24982;52.344;12.990;2022-10-16T10:48:54;2.50;;;1.00;;
9661;SDS011;24982;52.344;12.990;2022-10-16T10:52:12;2.65;;;1.10;;
9661;SDS011;24982;52.344;12.990;2022-10-16T10:55:31;1.10;;;0.93;;
9661;SDS011;24982;52.344;12.990;2022-10-16T10:58:49;1.48;;;1.10;;
9661;SDS011;24982;52.344;12.990;2022-10-16T11:02:04;1.55;;;0.85;;
9661;SDS011;24982;52.344;12.990;2022-10-16T11:05:18;3.03;;;1.00;;
9661;SDS011;24982;52.344;12.990;2022-10-16T11:08:33;1.35;;;0.77;;
9661;SDS011;24982;52.344;12.990;2022-10-16T11:11:40;1.13;;;0.82;;
9661;SDS011;24982;52.344;12.990;2022-10-16T11:14:48;1.33;;;0.90;;
9661;SDS011;24982;52.344;12.990;2022-10-16T11:17:55;1.65;;;0.90;;
9661;SDS011;24982;52.344;12.990;2022-10-16T11:21:04;0.68;;;0.68;;
9661;SDS011;24982;52.344;12.990;2022-10-16T11:24:11;0.70;;;0.70;;
9661;SDS011;24982;52.344;12.990;2022-10-16T11:27:23;0.80;;;0.80;;
9661;SDS011;24982;52.344;12.990;2022-10-16T11:30:40;1.98;;;0.90;;
9661;SDS011;24982;52.344;12.990;2022-10-16T11:33:46;0.65;;;0.65;;
9661;SDS011;24982;52.344;12.990;2022-10-16T11:36:53;2.63;;;0.70;;
9661;SDS011;24982;52.344;12.990;2022-10-16T11:39:58;0.80;;;0.73;;
9661;SDS011;24982;52.344;12.990;2022-10-16T11:43:17;1.27;;;0.80;;
9661;SDS011;24982;52.344;12.990;2022-10-16T11:46:27;1.02;;;0.70;;
9661;SDS011;24982;52.344;12.990;2022-10-16T11:49:32;0.70;;;0.70;;
9661;SDS011;24982;52.344;12.990;2022-10-16T11:52:36;0.70;;;0.70;;
9661;SDS011;24982;52.344;12.990;2022-10-16T11:55:44;1.55;;;0.98;;
9661;SDS011;24982;52.344;12.990;2022-10-16T11:58:50;1.60;;;0.60;;
9661;SDS011;24982;52.344;12.990;2022-10-16T12:01:59;0.70;;;0.70;;
9661;SDS011;24982;52.344;12.990;2022-10-16T12:05:22;1.80;;;0.70;;
9661;SDS011;24982;52.344;12.990;2022-10-16T12:08:32;0.80;;;0.80;;
9661;SDS011;24982;52.344;12.990;2022-10-16T12:11:36;2.17;;;0.82;;
9661;SDS011;24982;52.344;12.990;2022-10-16T12:14:39;1.67;;;0.90;;
9661;SDS011;24982;52.344;12.990;2022-10-16T12:17:43;1.83;;;0.90;;
9661;SDS011;24982;52.344;12.990;2022-10-16T12:20:53;0.75;;;0.75;;
9661;SDS011;24982;52.344;12.990;2022-10-16T12:23:59;1.83;;;0.80;;
9661;SDS011;24982;52.344;12.990;2022-10-16T12:27:04;0.73;;;0.73;;
9661;SDS011;24982;52.344;12.990;2022-10-16T12:30:18;0.70;;;0.70;;
9661;SDS011;24982;52.344;12.990;2022-10-16T12:33:25;1.95;;;0.85;;
9661;SDS011;24982;52.344;12.990;2022-10-16T12:36:29;0.60;;;0.60;;
9661;SDS011;24982;52.344;12.990;2022-10-16T12:39:33;4.85;;;0.75;;
9661;SDS011;24982;52.344;12.990;2022-10-16T12:42:37;5.40;;;0.70;;
9661;SDS011;24982;52.344;12.990;2022-10-16T12:45:39;0.80;;;0.80;;
9661;SDS011;24982;52.344;12.990;2022-10-16T12:48:43;1.23;;;0.65;;
9661;SDS011;24982;52.344;12.990;2022-10-16T12:51:46;0.70;;;0.70;;
9661;SDS011;24982;52.344;12.990;2022-10-16T12:54:49;0.70;;;0.70;;
9661;SDS011;24982;52.344;12.990;2022-10-16T12:57:59;0.77;;;0.77;;
9661;SDS011;24982;52.344;12.990;2022-10-16T13:01:12;0.75;;;0.73;;
9661;SDS011;24982;52.344;12.990;2022-10-16T13:04:37;1.23;;;0.80;;
9661;SDS011;24982;52.344;12.990;2022-10-16T13:07:53;1.13;;;0.70;;
9661;SDS011;24982;52.344;12.990;2022-10-16T13:11:08;6.25;;;0.90;;
9661;SDS011;24982;52.344;12.990;2022-10-16T13:14:25;1.38;;;0.75;;
9661;SDS011;24982;52.344;12.990;2022-10-16T13:17:56;1.85;;;0.90;;
9661;SDS011;24982;52.344;12.990;2022-10-16T13:21:07;3.55;;;1.00;;
9661;SDS011;24982;52.344;12.990;2022-10-16T13:24:23;1.20;;;0.93;;
9661;SDS011;24982;52.344;12.990;2022-10-16T13:27:43;2.47;;;1.00;;
9661;SDS011;24982;52.344;12.990;2022-10-16T13:30:53;3.53;;;1.40;;
9661;SDS011;24982;52.344;12.990;2022-10-16T13:33:58;3.15;;;1.92;;
9661;SDS011;24982;52.344;12.990;2022-10-16T13:37:02;1.60;;;1.50;;
9661;SDS011;24982;52.344;12.990;2022-10-16T13:40:19;2.58;;;1.70;;
9661;SDS011;24982;52.344;12.990;2022-10-16T13:43:24;1.50;;;1.27;;
9661;SDS011;24982;52.344;12.990;2022-10-16T13:46:28;1.77;;;1.63;;
9661;SDS011;24982;52.344;12.990;2022-10-16T13:49:34;1.38;;;0.90;;
9661;SDS011;24982;52.344;12.990;2022-10-16T13:52:37;1.75;;;1.20;;
9661;SDS011;24982;52.344;12.990;2022-10-16T13:55:39;0.85;;;0.85;;
9661;SDS011;24982;52.344;12.990;2022-10-16T13:58:42;0.90;;;0.90;;
9661;SDS011;24982;52.344;12.990;2022-10-16T14:01:44;1.45;;;1.10;;
9661;SDS011;24982;52.344;12.990;2022-10-16T14:04:46;1.38;;;1.30;;
9661;SDS011;24982;52.344;12.990;2022-10-16T14:07:51;2.83;;;1.30;;
9661;SDS011;24982;52.344;12.990;2022-10-16T14:10:55;1.00;;;1.00;;
9661;SDS011;24982;52.344;12.990;2022-10-16T14:13:58;1.55;;;1.10;;
9661;SDS011;24982;52.344;12.990;2022-10-16T14:17:02;0.80;;;0.80;;
9661;SDS011;24982;52.344;12.990;2022-10-16T14:20:05;1.60;;;0.70;;
9661;SDS011;24982;52.344;12.990;2022-10-16T14:23:22;0.98;;;0.77;;
9661;SDS011;24982;52.344;12.990;2022-10-16T14:26:29;0.75;;;0.75;;
9661;SDS011;24982;52.344;12.990;2022-10-16T14:29:41;0.70;;;0.70;;
9661;SDS011;24982;52.344;12.990;2022-10-16T14:32:52;1.48;;;0.98;;
9661;SDS011;24982;52.344;12.990;2022-10-16T14:35:59;0.90;;;0.90;;
9661;SDS011;24982;52.344;12.990;2022-10-16T14:39:13;3.53;;;0.93;;
9661;SDS011;24982;52.344;12.990;2022-10-16T14:42:21;0.70;;;0.70;;
9661;SDS011;24982;52.344;12.990;2022-10-16T14:45:26;4.20;;;1.60;;
9661;SDS011;24982;52.344;12.990;2022-10-16T14:48:30;3.20;;;2.05;;
9661;SDS011;24982;52.344;12.990;2022-10-16T14:51:32;2.28;;;1.95;;
9661;SDS011;24982;52.344;12.990;2022-10-16T14:54:36;3.25;;;1.90;;
9661;SDS011;24982;52.344;12.990;2022-10-16T14:57:38;1.73;;;1.60;;
9661;SDS011;24982;52.344;12.990;2022-10-16T15:00:40;1.90;;;1.80;;
9661;SDS011;24982;52.344;12.990;2022-10-16T15:03:43;4.80;;;2.75;;
9661;SDS011;24982;52.344;12.990;2022-10-16T15:06:45;3.35;;;2.88;;
9661;SDS011;24982;52.344;12.990;2022-10-16T15:09:49;3.83;;;2.70;;
9661;SDS011;24982;52.344;12.990;2022-10-16T15:12:51;1.80;;;1.70;;
9661;SDS011;24982;52.344;12.990;2022-10-16T15:15:53;1.58;;;1.48;;
9661;SDS011;24982;52.344;12.990;2022-10-16T15:18:55;2.17;;;2.08;;
9661;SDS011;24982;52.344;12.990;2022-10-16T15:21:57;2.88;;;2.67;;
9661;SDS011;24982;52.344;12.990;2022-10-16T15:25:01;7.88;;;4.75;;
9661;SDS011;24982;52.344;12.990;2022-10-16T15:28:03;3.63;;;3.33;;
9661;SDS011;24982;52.344;12.990;2022-10-16T15:31:06;2.40;;;2.20;;
9661;SDS011;24982;52.344;12.990;2022-10-16T15:34:09;3.72;;;2.88;;
9661;SDS011;24982;52.344;12.990;2022-10-16T15:37:11;7.78;;;4.93;;
9661;SDS011;24982;52.344;12.990;2022-10-16T15:40:15;14.75;;;10.70;;
9661;SDS011;24982;52.344;12.990;2022-10-16T15:43:18;8.48;;;6.43;;
9661;SDS011;24982;52.344;12.990;2022-10-16T15:46:21;4.50;;;3.75;;
9661;SDS011;24982;52.344;12.990;2022-10-16T15:49:24;4.47;;;3.33;;
9661;SDS011;24982;52.344;12.990;2022-10-16T15:52:26;3.05;;;2.83;;
9661;SDS011;24982;52.344;12.990;2022-10-16T15:55:30;4.03;;;3.00;;
9661;SDS011;24982;52.344;12.990;2022-10-16T15:58:32;4.32;;;4.00;;
9661;SDS011;24982;52.344;12.990;2022-10-16T16:01:35;3.90;;;3.60;;
9661;SDS011;24982;52.344;12.990;2022-10-16T16:04:37;2.95;;;2.47;;
9661;SDS011;24982;52.344;12.990;2022-10-16T16:07:39;2.33;;;2.13;;
9661;SDS011;24982;52.344;12.990;2022-10-16T16:10:42;3.00;;;2.80;;
9661;SDS011;24982;52.344;12.990;2022-10-16T16:13:44;2.47;;;2.30;;
9661;SDS011;24982;52.344;12.990;2022-10-16T16:16:46;3.47;;;1.88;;
9661;SDS011;24982;52.344;12.990;2022-10-16T16:19:49;2.25;;;2.05;;
9661;SDS011;24982;52.344;12.990;2022-10-16T16:22:51;6.10;;;2.95;;
9661;SDS011;24982;52.344;12.990;2022-10-16T16:26:06;2.90;;;2.70;;
9661;SDS011;24982;52.344;12.990;2022-10-16T16:29:11;3.95;;;2.40;;
9661;SDS011;24982;52.344;12.990;2022-10-16T16:32:13;7.40;;;3.10;;
9661;SDS011;24982;52.344;12.990;2022-10-16T16:35:15;3.30;;;2.30;;
9661;SDS011;24982;52.344;12.990;2022-10-16T16:38:17;6.35;;;1.80;;
9661;SDS011;24982;52.344;12.990;2022-10-16T16:41:21;5.32;;;1.98;;
9661;SDS011;24982;52.344;12.990;2022-10-16T16:44:25;2.80;;;1.40;;
9661;SDS011;24982;52.344;12.990;2022-10-16T16:47:27;6.68;;;1.50;;
9661;SDS011;24982;52.344;12.990;2022-10-16T16:50:29;3.40;;;1.00;;
9661;SDS011;24982;52.344;12.990;2022-10-16T16:53:36;3.95;;;1.10;;
9661;SDS011;24982;52.344;12.990;2022-10-16T16:56:39;1.65;;;0.90;;
9661;SDS011;24982;52.344;12.990;2022-10-16T16:59:42;3.25;;;1.10;;
9661;SDS011;24982;52.344;12.990;2022-10-16T17:02:47;3.15;;;1.20;;
9661;SDS011;24982;52.344;12.990;2022-10-16T17:05:54;5.90;;;2.58;;
9661;SDS011;24982;52.344;12.990;2022-10-16T17:08:57;8.48;;;2.70;;
9661;SDS011;24982;52.344;12.990;2022-10-16T17:12:04;3.60;;;1.95;;
9661;SDS011;24982;52.344;12.990;2022-10-16T17:15:06;4.28;;;1.92;;
9661;SDS011;24982;52.344;12.990;2022-10-16T17:18:09;6.45;;;1.83;;
9661;SDS011;24982;52.344;12.990;2022-10-16T17:21:11;4.13;;;1.45;;
9661;SDS011;24982;52.344;12.990;2022-10-16T17:24:13;1.55;;;1.30;;
9661;SDS011;24982;52.344;12.990;2022-10-16T17:27:17;2.78;;;1.15;;
9661;SDS011;24982;52.344;12.990;2022-10-16T17:30:19;2.78;;;1.10;;
9661;SDS011;24982;52.344;12.990;2022-10-16T17:33:21;8.30;;;1.27;;
9661;SDS011;24982;52.344;12.990;2022-10-16T17:36:23;3.05;;;1.30;;
9661;SDS011;24982;52.344;12.990;2022-10-16T17:39:26;3.28;;;1.30;;
9661;SDS011;24982;52.344;12.990;2022-10-16T17:42:29;1.50;;;1.40;;
9661;SDS011;24982;52.344;12.990;2022-10-16T17:45:34;5.82;;;1.65;;
9661;SDS011;24982;52.344;12.990;2022-10-16T17:48:39;2.97;;;1.80;;
9661;SDS011;24982;52.344;12.990;2022-10-16T17:51:43;7.53;;;1.63;;
9661;SDS011;24982;52.344;12.990;2022-10-16T17:54:45;6.93;;;1.95;;
9661;SDS011;24982;52.344;12.990;2022-10-16T17:57:52;6.18;;;1.70;;
9661;SDS011;24982;52.344;12.990;2022-10-16T18:00:55;3.05;;;1.63;;
9661;SDS011;24982;52.344;12.990;2022-10-16T18:03:58;6.28;;;2.20;;
9661;SDS011;24982;52.344;12.990;2022-10-16T18:07:01;2.83;;;2.00;;
9661;SDS011;24982;52.344;12.990;2022-10-16T18:10:04;1.98;;;1.70;;
9661;SDS011;24982;52.344;12.990;2022-10-16T18:13:11;2.95;;;1.42;;
9661;SDS011;24982;52.344;12.990;2022-10-16T18:16:14;2.17;;;1.70;;
9661;SDS011;24982;52.344;12.990;2022-10-16T18:19:16;2.00;;;1.90;;
9661;SDS011;24982;52.344;12.990;2022-10-16T18:22:18;6.57;;;2.80;;
9661;SDS011;24982;52.344;12.990;2022-10-16T18:25:21;4.90;;;3.70;;
9661;SDS011;24982;52.344;12.990;2022-10-16T18:28:25;4.43;;;4.00;;
9661;SDS011;24982;52.344;12.990;2022-10-16T18:31:27;3.97;;;3.45;;
9661;SDS011;24982;52.344;12.990;2022-10-16T18:34:29;4.28;;;3.83;;
9661;SDS011;24982;52.344;12.990;2022-10-16T18:37:33;4.32;;;2.97;;